Ellon, United Kingdom
Current Conditions -  °F | °C
As of 5:20 AM on Sunday 26 Oct 2014 (Local Time) from EGPD Reporting Station
Few Clouds Few Clouds  
Wind Chill: 52°   Ceiling: Unl
Heat Index: 52°   Visibility: 6mi
Dew Point: 45°   Wind: 21mph
Humidity: 76%   Direction: 210°SSW
Pressure: 29.53"   Gusts: NA
Location:  57.37°N, 2.07°W
Report Text: EGPD 260420Z AUTO 21018KT 9999 FEW030/// 11/07 Q1000
Loading
Personal Weather Stations






























Interactive Weather Map
Tropical Storm Tracking
New forecast layout! Learn more

10-Day Weather Forecast

Advertisements
Track Severe Weather on mobile